Wood Ridge, New Jersey
Current Conditions -  °F | °C
As of 1:51 PM on Wednesday 26 Nov 2014 (Local Time) from KTEB Reporting Station
Light Snow Light Snow  
Wind Chill: 27°   Ceiling: 500
Heat Index: 34°   Visibility: 1.5mi
Dew Point: 31°   Wind: 8mph
Humidity: 89%   Direction: 10°N
Pressure: 29.95"   Gusts: NA
Location:  40.85°N, 74.09°W
Report Text: KTEB 261851Z 01007KT 1 1/2SM -SN BR BKN005 OVC021 01/M01 A2995 RMK AO2 SLP141 P0011 T00111006
Loading
Personal Weather Stations






























Interactive Weather Map New forecast layout! Learn more

10-Day Weather Forecast

Advertisements
Track Severe Weather on mobile